CTN341 LQSA-LDZA
Flight info
| Callsign | CTN341 |
|---|---|
| Flight time | 0h 39m |
| Altitude | 20000 |
| Route | BOSNA L608 KOMAR L187 TEBLI |
| Aircraft | A319/M-SDE3FGHIRWY/LB1 |
Departure
| Time | 2026-04-19 04:25 |
|---|---|
| Airport | Sarajevo International Airport (LQSA) |
Arrival
| Time | 2026-04-19 05:05 |
|---|---|
| Airport | Zagreb Franjo Tuđman International Airport (LDZA) |
| Time | Latitude | Longitude | Altitude | Speed | Heading |
|---|---|---|---|---|---|
| 2026-04-19 04:05 | 43.82539 | 18.33628 | 1686 ft | 0 kts | 30° |
| 2026-04-19 04:19 | 43.82525 | 18.33617 | 1690 ft | 4 kts | 36° |
| 2026-04-19 04:19 | 43.82505 | 18.33592 | 1686 ft | 4 kts | 52° |
| 2026-04-19 04:20 | 43.82492 | 18.33561 | 1686 ft | 4 kts | 79° |
| 2026-04-19 04:20 | 43.82493 | 18.33529 | 1687 ft | 1 kts | 116° |
| 2026-04-19 04:20 | 43.82494 | 18.33528 | 1687 ft | 0 kts | 116° |
| 2026-04-19 04:22 | 43.82491 | 18.33534 | 1689 ft | 4 kts | 116° |
| 2026-04-19 04:22 | 43.82456 | 18.33639 | 1693 ft | 20 kts | 116° |
| 2026-04-19 04:22 | 43.82377 | 18.33846 | 1692 ft | 25 kts | 117° |
| 2026-04-19 04:22 | 43.82304 | 18.34040 | 1699 ft | 21 kts | 117° |
| 2026-04-19 04:23 | 43.82241 | 18.34208 | 1703 ft | 19 kts | 117° |
| 2026-04-19 04:23 | 43.82184 | 18.34359 | 1707 ft | 17 kts | 118° |
| 2026-04-19 04:23 | 43.82132 | 18.34495 | 1710 ft | 15 kts | 118° |
| 2026-04-19 04:23 | 43.82076 | 18.34606 | 1714 ft | 13 kts | 145° |
| 2026-04-19 04:24 | 43.81991 | 18.34619 | 1716 ft | 12 kts | 196° |
| 2026-04-19 04:24 | 43.81936 | 18.34552 | 1715 ft | 11 kts | 277° |
| 2026-04-19 04:24 | 43.82006 | 18.34358 | 1710 ft | 53 kts | 297° |
| 2026-04-19 04:24 | 43.82304 | 18.33565 | 1697 ft | 129 kts | 298° |
| 2026-04-19 04:25 | 43.82799 | 18.32262 | 1971 ft | 158 kts | 298° |
| 2026-04-19 04:25 | 43.83326 | 18.30971 | 2785 ft | 155 kts | 310° |
| 2026-04-19 04:25 | 43.84265 | 18.30229 | 3340 ft | 158 kts | 343° |
| 2026-04-19 04:25 | 43.85376 | 18.29790 | 3738 ft | 177 kts | 345° |
| 2026-04-19 04:26 | 43.86641 | 18.29315 | 4098 ft | 199 kts | 345° |
| 2026-04-19 04:26 | 43.88052 | 18.28769 | 4531 ft | 221 kts | 344° |
| 2026-04-19 04:26 | 43.89592 | 18.28149 | 5095 ft | 240 kts | 345° |
| 2026-04-19 04:26 | 43.91216 | 18.27470 | 5982 ft | 246 kts | 344° |
| 2026-04-19 04:27 | 43.92866 | 18.26762 | 6931 ft | 250 kts | 344° |
| 2026-04-19 04:27 | 43.94532 | 18.26036 | 7897 ft | 252 kts | 344° |
| 2026-04-19 04:27 | 43.96268 | 18.25562 | 8725 ft | 263 kts | 355° |
| 2026-04-19 04:27 | 43.98139 | 18.25308 | 9423 ft | 275 kts | 355° |
| 2026-04-19 04:28 | 44.00068 | 18.25060 | 10331 ft | 280 kts | 355° |
| 2026-04-19 04:28 | 44.02024 | 18.24813 | 11219 ft | 284 kts | 355° |
| 2026-04-19 04:28 | 44.03977 | 18.24557 | 12099 ft | 287 kts | 353° |
| 2026-04-19 04:28 | 44.05913 | 18.23849 | 12967 ft | 291 kts | 338° |
| 2026-04-19 04:29 | 44.07694 | 18.22411 | 13591 ft | 307 kts | 322° |
| 2026-04-19 04:29 | 44.09234 | 18.20216 | 13966 ft | 327 kts | 312° |
| 2026-04-19 04:29 | 44.10740 | 18.17796 | 14615 ft | 333 kts | 312° |
| 2026-04-19 04:29 | 44.12271 | 18.15356 | 15365 ft | 336 kts | 313° |
| 2026-04-19 04:30 | 44.13821 | 18.12901 | 16120 ft | 339 kts | 313° |
| 2026-04-19 04:30 | 44.15389 | 18.10430 | 16887 ft | 342 kts | 313° |
| 2026-04-19 04:30 | 44.16971 | 18.07939 | 17616 ft | 345 kts | 313° |
| 2026-04-19 04:30 | 44.18567 | 18.05422 | 18368 ft | 348 kts | 312° |
| 2026-04-19 04:31 | 44.20173 | 18.02882 | 19019 ft | 351 kts | 312° |
| 2026-04-19 04:31 | 44.21789 | 18.00318 | 19666 ft | 354 kts | 312° |
| 2026-04-19 04:31 | 44.23420 | 17.97728 | 20035 ft | 356 kts | 312° |
| 2026-04-19 04:31 | 44.25048 | 17.95140 | 20136 ft | 351 kts | 313° |
| 2026-04-19 04:32 | 44.26620 | 17.92642 | 20155 ft | 335 kts | 313° |
| 2026-04-19 04:32 | 44.28142 | 17.90219 | 20157 ft | 329 kts | 313° |
| 2026-04-19 04:32 | 44.29646 | 17.87821 | 20157 ft | 328 kts | 312° |
| 2026-04-19 04:32 | 44.31146 | 17.85431 | 20158 ft | 327 kts | 313° |
| 2026-04-19 04:33 | 44.32644 | 17.83040 | 20160 ft | 327 kts | 313° |
| 2026-04-19 04:33 | 44.34139 | 17.80650 | 20158 ft | 326 kts | 313° |
| 2026-04-19 04:33 | 44.35632 | 17.78260 | 20160 ft | 326 kts | 313° |
| 2026-04-19 04:33 | 44.37123 | 17.75873 | 20161 ft | 326 kts | 313° |
| 2026-04-19 04:34 | 44.38611 | 17.73485 | 20160 ft | 326 kts | 312° |
| 2026-04-19 04:34 | 44.40095 | 17.71091 | 20159 ft | 326 kts | 312° |
| 2026-04-19 04:34 | 44.41580 | 17.68687 | 20159 ft | 326 kts | 312° |
| 2026-04-19 04:34 | 44.43062 | 17.66285 | 20158 ft | 326 kts | 312° |
| 2026-04-19 04:35 | 44.44543 | 17.63889 | 20158 ft | 326 kts | 312° |
| 2026-04-19 04:35 | 44.46026 | 17.61491 | 20157 ft | 326 kts | 312° |
| 2026-04-19 04:35 | 44.47509 | 17.59092 | 20156 ft | 326 kts | 312° |
| 2026-04-19 04:35 | 44.48993 | 17.56687 | 20151 ft | 326 kts | 312° |
| 2026-04-19 04:36 | 44.50474 | 17.54287 | 20153 ft | 326 kts | 312° |
| 2026-04-19 04:36 | 44.51958 | 17.51877 | 20151 ft | 326 kts | 312° |
| 2026-04-19 04:36 | 44.53436 | 17.49474 | 20152 ft | 326 kts | 312° |
| 2026-04-19 04:36 | 44.54916 | 17.47064 | 20151 ft | 326 kts | 312° |
| 2026-04-19 04:37 | 44.56396 | 17.44654 | 20153 ft | 326 kts | 312° |
| 2026-04-19 04:37 | 44.57857 | 17.42274 | 20160 ft | 326 kts | 312° |
| 2026-04-19 04:37 | 44.59338 | 17.39859 | 20151 ft | 326 kts | 312° |
| 2026-04-19 04:37 | 44.60814 | 17.37446 | 20151 ft | 326 kts | 312° |
| 2026-04-19 04:38 | 44.62293 | 17.35030 | 20151 ft | 326 kts | 312° |
| 2026-04-19 04:38 | 44.63774 | 17.32610 | 20150 ft | 326 kts | 312° |
| 2026-04-19 04:38 | 44.65255 | 17.30203 | 20151 ft | 326 kts | 312° |
| 2026-04-19 04:38 | 44.66742 | 17.27803 | 20150 ft | 326 kts | 312° |
| 2026-04-19 04:39 | 44.68233 | 17.25404 | 20143 ft | 326 kts | 312° |
| 2026-04-19 04:39 | 44.69725 | 17.23002 | 20137 ft | 326 kts | 312° |
| 2026-04-19 04:39 | 44.71213 | 17.20600 | 20136 ft | 326 kts | 312° |
| 2026-04-19 04:39 | 44.72703 | 17.18192 | 20134 ft | 326 kts | 312° |
| 2026-04-19 04:40 | 44.74192 | 17.15783 | 20136 ft | 326 kts | 312° |
| 2026-04-19 04:40 | 44.75679 | 17.13368 | 20137 ft | 326 kts | 312° |
| 2026-04-19 04:40 | 44.77168 | 17.10949 | 20138 ft | 327 kts | 312° |
| 2026-04-19 04:40 | 44.78653 | 17.08534 | 20135 ft | 326 kts | 312° |
| 2026-04-19 04:41 | 44.80139 | 17.06109 | 20135 ft | 326 kts | 312° |
| 2026-04-19 04:41 | 44.81620 | 17.03689 | 20137 ft | 327 kts | 311° |
| 2026-04-19 04:41 | 44.83104 | 17.01262 | 20137 ft | 327 kts | 312° |
| 2026-04-19 04:41 | 44.84567 | 16.98875 | 20138 ft | 327 kts | 312° |
| 2026-04-19 04:42 | 44.86051 | 16.96449 | 20133 ft | 327 kts | 311° |
| 2026-04-19 04:42 | 44.87533 | 16.94022 | 20131 ft | 327 kts | 311° |
| 2026-04-19 04:42 | 44.89017 | 16.91591 | 20131 ft | 327 kts | 311° |
| 2026-04-19 04:42 | 44.90499 | 16.89158 | 20131 ft | 327 kts | 311° |
| 2026-04-19 04:43 | 44.91981 | 16.86722 | 20134 ft | 327 kts | 311° |
| 2026-04-19 04:43 | 44.93469 | 16.84280 | 20135 ft | 327 kts | 311° |
| 2026-04-19 04:43 | 44.95010 | 16.81928 | 20134 ft | 327 kts | 319° |
| 2026-04-19 04:43 | 44.96850 | 16.80055 | 20134 ft | 326 kts | 331° |
| 2026-04-19 04:44 | 44.98929 | 16.78772 | 20133 ft | 326 kts | 339° |
| 2026-04-19 04:44 | 45.01060 | 16.77664 | 20130 ft | 327 kts | 339° |
| 2026-04-19 04:44 | 45.03193 | 16.76550 | 20130 ft | 326 kts | 339° |
| 2026-04-19 04:44 | 45.05321 | 16.75431 | 20130 ft | 327 kts | 339° |
| 2026-04-19 04:45 | 45.07450 | 16.74305 | 20130 ft | 327 kts | 339° |
| 2026-04-19 04:45 | 45.09580 | 16.73181 | 20128 ft | 327 kts | 339° |
| 2026-04-19 04:45 | 45.11709 | 16.72059 | 20123 ft | 327 kts | 339° |
| 2026-04-19 04:45 | 45.13837 | 16.70934 | 20131 ft | 326 kts | 339° |
| 2026-04-19 04:46 | 45.15965 | 16.69809 | 20131 ft | 326 kts | 339° |
| 2026-04-19 04:46 | 45.18092 | 16.68680 | 20130 ft | 326 kts | 338° |
| 2026-04-19 04:46 | 45.20099 | 16.67185 | 20129 ft | 326 kts | 325° |
| 2026-04-19 04:46 | 45.21824 | 16.65113 | 20128 ft | 326 kts | 314° |
| 2026-04-19 04:47 | 45.23380 | 16.62773 | 20128 ft | 326 kts | 314° |
| 2026-04-19 04:47 | 45.24941 | 16.60439 | 20127 ft | 326 kts | 314° |
| 2026-04-19 04:47 | 45.26506 | 16.58106 | 20128 ft | 326 kts | 314° |
| 2026-04-19 04:47 | 45.28074 | 16.55769 | 20122 ft | 326 kts | 314° |
| 2026-04-19 04:48 | 45.29614 | 16.53469 | 20119 ft | 326 kts | 314° |
| 2026-04-19 04:48 | 45.31179 | 16.51129 | 20119 ft | 326 kts | 314° |
| 2026-04-19 04:48 | 45.32739 | 16.48791 | 20120 ft | 326 kts | 314° |
| 2026-04-19 04:48 | 45.34303 | 16.46445 | 20120 ft | 326 kts | 314° |
| 2026-04-19 04:49 | 45.35863 | 16.44103 | 20116 ft | 326 kts | 314° |
| 2026-04-19 04:49 | 45.37426 | 16.41756 | 20120 ft | 326 kts | 314° |
| 2026-04-19 04:49 | 45.38981 | 16.39416 | 20126 ft | 326 kts | 314° |
| 2026-04-19 04:49 | 45.40536 | 16.37071 | 20126 ft | 326 kts | 314° |
| 2026-04-19 04:50 | 45.42094 | 16.34724 | 20125 ft | 326 kts | 314° |
| 2026-04-19 04:50 | 45.43648 | 16.32383 | 20125 ft | 326 kts | 314° |
| 2026-04-19 04:50 | 45.45205 | 16.30035 | 20125 ft | 326 kts | 314° |
| 2026-04-19 04:50 | 45.46759 | 16.27684 | 20126 ft | 330 kts | 314° |
| 2026-04-19 04:51 | 45.48381 | 16.25231 | 20121 ft | 347 kts | 314° |
| 2026-04-19 04:51 | 45.50052 | 16.22704 | 20123 ft | 352 kts | 314° |
| 2026-04-19 04:51 | 45.51738 | 16.20156 | 20122 ft | 354 kts | 314° |
| 2026-04-19 04:51 | 45.53424 | 16.17603 | 20122 ft | 354 kts | 314° |
| 2026-04-19 04:52 | 45.55109 | 16.15044 | 20120 ft | 353 kts | 314° |
| 2026-04-19 04:52 | 45.56843 | 16.12572 | 20116 ft | 352 kts | 323° |
| 2026-04-19 04:52 | 45.59044 | 16.11123 | 20118 ft | 351 kts | 349° |
| 2026-04-19 04:52 | 45.61482 | 16.11260 | 20119 ft | 355 kts | 14° |
| 2026-04-19 04:53 | 45.63660 | 16.12940 | 20124 ft | 362 kts | 37° |
| 2026-04-19 04:53 | 45.65400 | 16.15509 | 20124 ft | 363 kts | 48° |
| 2026-04-19 04:53 | 45.66874 | 16.18356 | 20029 ft | 351 kts | 52° |
| 2026-04-19 04:53 | 45.68251 | 16.21161 | 19903 ft | 338 kts | 51° |
| 2026-04-19 04:54 | 45.69632 | 16.23808 | 19601 ft | 326 kts | 49° |
| 2026-04-19 04:54 | 45.71087 | 16.26354 | 18629 ft | 333 kts | 46° |
| 2026-04-19 04:54 | 45.72639 | 16.28855 | 17587 ft | 339 kts | 45° |
| 2026-04-19 04:54 | 45.74258 | 16.31346 | 16535 ft | 345 kts | 44° |
| 2026-04-19 04:55 | 45.75920 | 16.33850 | 15514 ft | 349 kts | 44° |
| 2026-04-19 04:55 | 45.77601 | 16.36372 | 14534 ft | 351 kts | 44° |
| 2026-04-19 04:55 | 45.79292 | 16.38921 | 13530 ft | 353 kts | 44° |
| 2026-04-19 04:55 | 45.80976 | 16.41483 | 12477 ft | 353 kts | 45° |
| 2026-04-19 04:56 | 45.82084 | 16.43183 | 11796 ft | 352 kts | 45° |
| 2026-04-19 04:56 | 45.84301 | 16.46592 | 10468 ft | 347 kts | 45° |
| 2026-04-19 04:56 | 45.85499 | 16.48095 | 9802 ft | 342 kts | 31° |
| 2026-04-19 04:56 | 45.87697 | 16.49203 | 8746 ft | 335 kts | 4° |
| 2026-04-19 04:57 | 45.89958 | 16.48700 | 7725 ft | 331 kts | 337° |
| 2026-04-19 04:57 | 45.91894 | 16.46938 | 6730 ft | 329 kts | 321° |
| 2026-04-19 04:57 | 45.93532 | 16.44673 | 5708 ft | 326 kts | 314° |
| 2026-04-19 04:57 | 45.94775 | 16.41991 | 4691 ft | 326 kts | 290° |
| 2026-04-19 04:58 | 45.94906 | 16.38854 | 4226 ft | 308 kts | 256° |
| 2026-04-19 04:58 | 45.93989 | 16.36218 | 4099 ft | 288 kts | 234° |
| 2026-04-19 04:58 | 45.92709 | 16.34094 | 3968 ft | 273 kts | 225° |
| 2026-04-19 04:58 | 45.91378 | 16.32252 | 3837 ft | 259 kts | 223° |
| 2026-04-19 04:59 | 45.90093 | 16.30530 | 3711 ft | 246 kts | 224° |
| 2026-04-19 04:59 | 45.88861 | 16.28911 | 3597 ft | 234 kts | 221° |
| 2026-04-19 04:59 | 45.87709 | 16.27344 | 3507 ft | 222 kts | 226° |
| 2026-04-19 04:59 | 45.86693 | 16.25821 | 3502 ft | 203 kts | 227° |
| 2026-04-19 05:00 | 45.85768 | 16.24403 | 3391 ft | 187 kts | 227° |
| 2026-04-19 05:00 | 45.84922 | 16.23107 | 3158 ft | 165 kts | 227° |
| 2026-04-19 05:00 | 45.84184 | 16.21978 | 2947 ft | 146 kts | 227° |
| 2026-04-19 05:00 | 45.83517 | 16.20957 | 2765 ft | 136 kts | 227° |
| 2026-04-19 05:01 | 45.82878 | 16.19979 | 2590 ft | 133 kts | 227° |
| 2026-04-19 05:01 | 45.82249 | 16.19018 | 2415 ft | 131 kts | 227° |
| 2026-04-19 05:01 | 45.81626 | 16.18065 | 2246 ft | 131 kts | 227° |
| 2026-04-19 05:01 | 45.81005 | 16.17116 | 2066 ft | 131 kts | 227° |
| 2026-04-19 05:02 | 45.80384 | 16.16168 | 1891 ft | 130 kts | 227° |
| 2026-04-19 05:02 | 45.79764 | 16.15221 | 1715 ft | 130 kts | 227° |
| 2026-04-19 05:02 | 45.79148 | 16.14280 | 1537 ft | 129 kts | 227° |
| 2026-04-19 05:02 | 45.78541 | 16.13354 | 1360 ft | 129 kts | 227° |
| 2026-04-19 05:03 | 45.77930 | 16.12421 | 1178 ft | 128 kts | 227° |
| 2026-04-19 05:03 | 45.77323 | 16.11497 | 1009 ft | 127 kts | 227° |
| 2026-04-19 05:03 | 45.76720 | 16.10578 | 836 ft | 126 kts | 227° |
| 2026-04-19 05:03 | 45.76119 | 16.09661 | 673 ft | 126 kts | 227° |
| 2026-04-19 05:04 | 45.75524 | 16.08752 | 501 ft | 125 kts | 227° |
| 2026-04-19 05:04 | 45.74936 | 16.07858 | 362 ft | 115 kts | 226° |
| 2026-04-19 05:04 | 45.74474 | 16.07153 | 358 ft | 77 kts | 226° |
| 2026-04-19 05:04 | 45.74177 | 16.06701 | 364 ft | 56 kts | 227° |
| 2026-04-19 05:05 | 45.73947 | 16.06353 | 361 ft | 21 kts | 226° |
| 2026-04-19 05:05 | 45.73861 | 16.06246 | 361 ft | 11 kts | 193° |
| 2026-04-19 05:05 | 45.73800 | 16.06319 | 363 ft | 13 kts | 136° |
| 2026-04-19 05:05 | 45.73741 | 16.06417 | 359 ft | 11 kts | 90° |
| 2026-04-19 05:06 | 45.73791 | 16.06509 | 359 ft | 12 kts | 47° |
| 2026-04-19 05:06 | 45.73853 | 16.06605 | 359 ft | 14 kts | 46° |
| 2026-04-19 05:06 | 45.73924 | 16.06711 | 363 ft | 16 kts | 46° |
| 2026-04-19 05:06 | 45.74011 | 16.06844 | 359 ft | 22 kts | 47° |
| 2026-04-19 05:07 | 45.74121 | 16.07013 | 359 ft | 24 kts | 46° |
| 2026-04-19 05:07 | 45.74216 | 16.07156 | 359 ft | 10 kts | 48° |
| 2026-04-19 05:07 | 45.74194 | 16.07238 | 359 ft | 11 kts | 141° |
| 2026-04-19 05:07 | 45.74134 | 16.07315 | 359 ft | 12 kts | 137° |
| 2026-04-19 05:08 | 45.74067 | 16.07406 | 359 ft | 15 kts | 133° |
| 2026-04-19 05:08 | 45.74174 | 16.07640 | 360 ft | 13 kts | 46° |
| 2026-04-19 05:08 | 45.74210 | 16.07724 | 359 ft | 8 kts | 106° |
| 2026-04-19 05:09 | 45.74161 | 16.07784 | 359 ft | 8 kts | 136° |
| 2026-04-19 05:09 | 45.74150 | 16.07799 | 359 ft | 0 kts | 136° |